sensor_id;sensor_type;location;lat;lon;timestamp;temperature;humidity
30381;DHT22;17169;50.966;11.038;2023-11-19T00:02:51;7.50;99.90
30381;DHT22;17169;50.966;11.038;2023-11-19T00:05:53;7.50;99.90
30381;DHT22;17169;50.966;11.038;2023-11-19T00:08:56;7.50;99.90
30381;DHT22;17169;50.966;11.038;2023-11-19T00:12:00;7.60;99.90
30381;DHT22;17169;50.966;11.038;2023-11-19T00:15:03;7.60;99.90
30381;DHT22;17169;50.966;11.038;2023-11-19T00:18:07;7.60;99.90
30381;DHT22;17169;50.966;11.038;2023-11-19T00:21:09;7.60;99.90
30381;DHT22;17169;50.966;11.038;2023-11-19T00:24:12;7.60;99.90
30381;DHT22;17169;50.966;11.038;2023-11-19T00:27:17;7.60;99.90
30381;DHT22;17169;50.966;11.038;2023-11-19T00:30:19;7.70;99.90
30381;DHT22;17169;50.966;11.038;2023-11-19T00:33:23;7.70;99.90
30381;DHT22;17169;50.966;11.038;2023-11-19T00:36:25;7.70;99.90
30381;DHT22;17169;50.966;11.038;2023-11-19T00:39:28;7.70;99.90
30381;DHT22;17169;50.966;11.038;2023-11-19T00:42:30;7.70;99.90
30381;DHT22;17169;50.966;11.038;2023-11-19T00:45:33;7.70;99.90
30381;DHT22;17169;50.966;11.038;2023-11-19T00:48:36;7.80;99.90
30381;DHT22;17169;50.966;11.038;2023-11-19T00:51:39;7.80;99.90
30381;DHT22;17169;50.966;11.038;2023-11-19T00:54:41;7.80;99.90
30381;DHT22;17169;50.966;11.038;2023-11-19T00:57:43;7.90;99.90
30381;DHT22;17169;50.966;11.038;2023-11-19T01:00:46;7.90;99.90
30381;DHT22;17169;50.966;11.038;2023-11-19T01:03:49;7.90;99.90
30381;DHT22;17169;50.966;11.038;2023-11-19T01:06:52;7.90;99.90
30381;DHT22;17169;50.966;11.038;2023-11-19T01:09:55;7.90;99.90
30381;DHT22;17169;50.966;11.038;2023-11-19T01:12:58;7.90;99.90
30381;DHT22;17169;50.966;11.038;2023-11-19T01:16:00;7.90;99.90
30381;DHT22;17169;50.966;11.038;2023-11-19T01:19:04;7.90;99.90
30381;DHT22;17169;50.966;11.038;2023-11-19T01:22:07;7.80;99.90
30381;DHT22;17169;50.966;11.038;2023-11-19T01:25:09;7.80;99.90
30381;DHT22;17169;50.966;11.038;2023-11-19T01:28:12;7.80;99.90
30381;DHT22;17169;50.966;11.038;2023-11-19T01:31:15;7.80;99.90
30381;DHT22;17169;50.966;11.038;2023-11-19T01:34:19;7.70;99.90
30381;DHT22;17169;50.966;11.038;2023-11-19T01:37:21;7.80;99.90
30381;DHT22;17169;50.966;11.038;2023-11-19T01:40:24;7.80;99.90
30381;DHT22;17169;50.966;11.038;2023-11-19T01:43:33;7.80;99.90
30381;DHT22;17169;50.966;11.038;2023-11-19T01:46:36;7.80;99.90
30381;DHT22;17169;50.966;11.038;2023-11-19T01:49:40;7.80;99.90
30381;DHT22;17169;50.966;11.038;2023-11-19T01:52:42;7.90;99.90
30381;DHT22;17169;50.966;11.038;2023-11-19T01:55:46;7.90;99.90
30381;DHT22;17169;50.966;11.038;2023-11-19T01:58:50;7.90;99.90
30381;DHT22;17169;50.966;11.038;2023-11-19T02:01:53;7.90;99.90
30381;DHT22;17169;50.966;11.038;2023-11-19T02:04:57;8.00;99.90
30381;DHT22;17169;50.966;11.038;2023-11-19T02:07:59;8.00;99.90
30381;DHT22;17169;50.966;11.038;2023-11-19T02:11:02;7.90;99.90
30381;DHT22;17169;50.966;11.038;2023-11-19T02:14:05;7.90;99.90
30381;DHT22;17169;50.966;11.038;2023-11-19T02:17:08;8.00;99.90
30381;DHT22;17169;50.966;11.038;2023-11-19T02:20:28;8.00;99.90
30381;DHT22;17169;50.966;11.038;2023-11-19T02:23:30;8.10;99.90
30381;DHT22;17169;50.966;11.038;2023-11-19T02:26:37;8.10;99.90
30381;DHT22;17169;50.966;11.038;2023-11-19T02:29:42;8.10;99.90
30381;DHT22;17169;50.966;11.038;2023-11-19T02:32:45;8.10;99.90
30381;DHT22;17169;50.966;11.038;2023-11-19T02:35:49;8.20;99.90
30381;DHT22;17169;50.966;11.038;2023-11-19T02:38:52;8.20;99.90
30381;DHT22;17169;50.966;11.038;2023-11-19T02:41:54;8.10;99.90
30381;DHT22;17169;50.966;11.038;2023-11-19T02:44:58;8.20;99.90
30381;DHT22;17169;50.966;11.038;2023-11-19T02:48:00;8.20;99.90
30381;DHT22;17169;50.966;11.038;2023-11-19T02:51:04;8.20;99.90
30381;DHT22;17169;50.966;11.038;2023-11-19T02:54:10;8.30;99.90
30381;DHT22;17169;50.966;11.038;2023-11-19T02:57:12;8.30;99.90
30381;DHT22;17169;50.966;11.038;2023-11-19T03:00:17;8.40;99.90
30381;DHT22;17169;50.966;11.038;2023-11-19T03:03:19;8.40;99.90
30381;DHT22;17169;50.966;11.038;2023-11-19T03:06:23;8.50;99.90
30381;DHT22;17169;50.966;11.038;2023-11-19T03:09:26;8.50;99.90
30381;DHT22;17169;50.966;11.038;2023-11-19T03:12:30;8.50;99.90
30381;DHT22;17169;50.966;11.038;2023-11-19T03:15:33;8.60;99.90
30381;DHT22;17169;50.966;11.038;2023-11-19T03:18:36;8.60;99.90
30381;DHT22;17169;50.966;11.038;2023-11-19T06:20:16;9.60;99.90
30381;DHT22;17169;50.966;11.038;2023-11-19T06:23:20;9.60;99.90
30381;DHT22;17169;50.966;11.038;2023-11-19T06:26:23;9.60;99.90
30381;DHT22;17169;50.966;11.038;2023-11-19T06:29:25;9.60;99.90
30381;DHT22;17169;50.966;11.038;2023-11-19T06:32:27;9.60;99.90
30381;DHT22;17169;50.966;11.038;2023-11-19T06:35:31;9.50;99.90
30381;DHT22;17169;50.966;11.038;2023-11-19T06:38:37;9.50;99.90
30381;DHT22;17169;50.966;11.038;2023-11-19T06:41:39;9.50;99.90
30381;DHT22;17169;50.966;11.038;2023-11-19T06:44:46;9.50;99.90
30381;DHT22;17169;50.966;11.038;2023-11-19T06:47:48;9.50;99.90
30381;DHT22;17169;50.966;11.038;2023-11-19T06:50:52;9.40;99.90
30381;DHT22;17169;50.966;11.038;2023-11-19T06:53:54;9.50;99.90
30381;DHT22;17169;50.966;11.038;2023-11-19T06:56:57;9.50;99.90
30381;DHT22;17169;50.966;11.038;2023-11-19T06:59:59;9.50;99.90
30381;DHT22;17169;50.966;11.038;2023-11-19T07:03:02;9.50;99.90
30381;DHT22;17169;50.966;11.038;2023-11-19T07:06:06;9.50;99.90
30381;DHT22;17169;50.966;11.038;2023-11-19T07:09:09;9.60;99.90
30381;DHT22;17169;50.966;11.038;2023-11-19T07:12:11;9.60;99.90
30381;DHT22;17169;50.966;11.038;2023-11-19T07:15:14;9.60;99.90
30381;DHT22;17169;50.966;11.038;2023-11-19T07:18:18;9.60;99.90
30381;DHT22;17169;50.966;11.038;2023-11-19T07:21:24;9.70;99.90
30381;DHT22;17169;50.966;11.038;2023-11-19T07:24:26;9.70;99.90
30381;DHT22;17169;50.966;11.038;2023-11-19T07:27:29;9.70;99.90
30381;DHT22;17169;50.966;11.038;2023-11-19T07:30:31;9.80;99.90
30381;DHT22;17169;50.966;11.038;2023-11-19T07:33:34;9.80;99.90
30381;DHT22;17169;50.966;11.038;2023-11-19T07:36:37;9.80;99.90
30381;DHT22;17169;50.966;11.038;2023-11-19T07:39:40;9.90;99.90
30381;DHT22;17169;50.966;11.038;2023-11-19T07:42:43;9.90;99.90
30381;DHT22;17169;50.966;11.038;2023-11-19T07:45:45;10.00;99.90
30381;DHT22;17169;50.966;11.038;2023-11-19T07:48:47;10.00;99.90
30381;DHT22;17169;50.966;11.038;2023-11-19T07:51:51;10.10;99.90
30381;DHT22;17169;50.966;11.038;2023-11-19T07:54:54;10.10;99.90
30381;DHT22;17169;50.966;11.038;2023-11-19T07:57:56;10.20;99.90
30381;DHT22;17169;50.966;11.038;2023-11-19T08:00:58;10.30;99.90
30381;DHT22;17169;50.966;11.038;2023-11-19T08:04:01;10.30;99.90
30381;DHT22;17169;50.966;11.038;2023-11-19T08:07:05;10.40;99.90
30381;DHT22;17169;50.966;11.038;2023-11-19T08:10:08;10.40;99.90
30381;DHT22;17169;50.966;11.038;2023-11-19T08:13:12;10.40;99.90
30381;DHT22;17169;50.966;11.038;2023-11-19T08:16:14;10.50;99.90
30381;DHT22;17169;50.966;11.038;2023-11-19T08:19:16;10.50;99.90
30381;DHT22;17169;50.966;11.038;2023-11-19T08:22:20;10.60;99.90
30381;DHT22;17169;50.966;11.038;2023-11-19T08:25:23;10.70;99.90
30381;DHT22;17169;50.966;11.038;2023-11-19T08:28:25;10.80;99.90
30381;DHT22;17169;50.966;11.038;2023-11-19T08:31:28;10.90;99.90
30381;DHT22;17169;50.966;11.038;2023-11-19T08:34:31;11.00;99.90
30381;DHT22;17169;50.966;11.038;2023-11-19T08:37:34;11.00;99.90
30381;DHT22;17169;50.966;11.038;2023-11-19T08:40:37;11.00;99.90
30381;DHT22;17169;50.966;11.038;2023-11-19T08:43:40;11.20;99.90
30381;DHT22;17169;50.966;11.038;2023-11-19T08:46:47;11.30;99.90
30381;DHT22;17169;50.966;11.038;2023-11-19T08:49:51;11.40;99.90
30381;DHT22;17169;50.966;11.038;2023-11-19T08:52:56;11.50;99.90
30381;DHT22;17169;50.966;11.038;2023-11-19T08:55:58;11.50;99.90
30381;DHT22;17169;50.966;11.038;2023-11-19T08:59:01;11.60;99.90
30381;DHT22;17169;50.966;11.038;2023-11-19T09:02:04;11.70;99.90
30381;DHT22;17169;50.966;11.038;2023-11-19T09:05:07;11.80;99.90
30381;DHT22;17169;50.966;11.038;2023-11-19T09:08:11;11.90;99.90
30381;DHT22;17169;50.966;11.038;2023-11-19T09:11:13;11.90;99.90
30381;DHT22;17169;50.966;11.038;2023-11-19T09:14:16;12.00;99.90
30381;DHT22;17169;50.966;11.038;2023-11-19T09:17:19;12.10;99.90
30381;DHT22;17169;50.966;11.038;2023-11-19T09:20:21;12.20;99.90
30381;DHT22;17169;50.966;11.038;2023-11-19T09:23:25;12.30;99.90
30381;DHT22;17169;50.966;11.038;2023-11-19T09:26:28;12.30;99.90
30381;DHT22;17169;50.966;11.038;2023-11-19T09:29:31;12.40;99.90
30381;DHT22;17169;50.966;11.038;2023-11-19T09:32:34;12.50;99.90
30381;DHT22;17169;50.966;11.038;2023-11-19T09:35:38;12.50;99.90
30381;DHT22;17169;50.966;11.038;2023-11-19T09:38:43;12.60;99.90
30381;DHT22;17169;50.966;11.038;2023-11-19T09:41:45;12.70;99.90
30381;DHT22;17169;50.966;11.038;2023-11-19T09:44:49;12.70;99.90
30381;DHT22;17169;50.966;11.038;2023-11-19T09:47:52;12.70;99.90
30381;DHT22;17169;50.966;11.038;2023-11-19T09:50:55;12.70;99.90
30381;DHT22;17169;50.966;11.038;2023-11-19T09:53:59;12.70;99.90
30381;DHT22;17169;50.966;11.038;2023-11-19T09:57:02;12.70;99.90
30381;DHT22;17169;50.966;11.038;2023-11-19T10:00:06;12.70;99.90
30381;DHT22;17169;50.966;11.038;2023-11-19T10:03:10;12.70;99.90
30381;DHT22;17169;50.966;11.038;2023-11-19T10:06:13;12.70;99.90
30381;DHT22;17169;50.966;11.038;2023-11-19T10:09:18;12.60;99.90
30381;DHT22;17169;50.966;11.038;2023-11-19T10:12:20;12.50;99.90
30381;DHT22;17169;50.966;11.038;2023-11-19T10:15:24;12.50;99.90
30381;DHT22;17169;50.966;11.038;2023-11-19T10:18:27;12.50;99.90
30381;DHT22;17169;50.966;11.038;2023-11-19T10:21:32;12.50;99.90
30381;DHT22;17169;50.966;11.038;2023-11-19T10:24:36;12.50;99.90
30381;DHT22;17169;50.966;11.038;2023-11-19T10:27:41;12.50;99.90
30381;DHT22;17169;50.966;11.038;2023-11-19T10:30:48;12.60;99.90
30381;DHT22;17169;50.966;11.038;2023-11-19T10:33:51;12.60;99.90
30381;DHT22;17169;50.966;11.038;2023-11-19T10:36:53;12.60;99.90
30381;DHT22;17169;50.966;11.038;2023-11-19T10:39:57;12.60;99.90
30381;DHT22;17169;50.966;11.038;2023-11-19T10:43:02;12.70;99.90
30381;DHT22;17169;50.966;11.038;2023-11-19T10:46:12;12.70;99.90
30381;DHT22;17169;50.966;11.038;2023-11-19T10:49:14;12.80;99.90
30381;DHT22;17169;50.966;11.038;2023-11-19T10:52:18;12.90;99.90
30381;DHT22;17169;50.966;11.038;2023-11-19T10:55:26;12.90;99.90
30381;DHT22;17169;50.966;11.038;2023-11-19T10:58:32;13.00;99.90
30381;DHT22;17169;50.966;11.038;2023-11-19T11:01:39;13.10;99.90
30381;DHT22;17169;50.966;11.038;2023-11-19T11:04:44;13.10;99.90
30381;DHT22;17169;50.966;11.038;2023-11-19T11:07:52;13.10;99.90
30381;DHT22;17169;50.966;11.038;2023-11-19T11:10:58;13.00;99.90
30381;DHT22;17169;50.966;11.038;2023-11-19T11:14:02;12.90;99.90
30381;DHT22;17169;50.966;11.038;2023-11-19T11:17:05;12.90;99.90
30381;DHT22;17169;50.966;11.038;2023-11-19T11:20:09;12.80;99.90
30381;DHT22;17169;50.966;11.038;2023-11-19T11:26:59;12.80;99.90
30381;DHT22;17169;50.966;11.038;2023-11-19T11:30:13;12.80;99.90
30381;DHT22;17169;50.966;11.038;2023-11-19T11:33:38;12.80;99.90
30381;DHT22;17169;50.966;11.038;2023-11-19T11:36:49;12.80;99.90
30381;DHT22;17169;50.966;11.038;2023-11-19T11:39:57;12.80;99.90
30381;DHT22;17169;50.966;11.038;2023-11-19T11:43:02;12.80;99.90
30381;DHT22;17169;50.966;11.038;2023-11-19T11:46:06;12.90;99.90
30381;DHT22;17169;50.966;11.038;2023-11-19T11:49:10;12.90;99.90
30381;DHT22;17169;50.966;11.038;2023-11-19T11:52:13;12.90;99.90
30381;DHT22;17169;50.966;11.038;2023-11-19T11:55:17;12.90;99.90
30381;DHT22;17169;50.966;11.038;2023-11-19T11:58:21;12.90;99.90
30381;DHT22;17169;50.966;11.038;2023-11-19T12:01:25;12.90;99.90
30381;DHT22;17169;50.966;11.038;2023-11-19T12:04:29;12.90;99.90
30381;DHT22;17169;50.966;11.038;2023-11-19T12:07:33;12.90;99.90
30381;DHT22;17169;50.966;11.038;2023-11-19T12:10:45;13.00;99.90
30381;DHT22;17169;50.966;11.038;2023-11-19T12:13:58;13.00;99.90
30381;DHT22;17169;50.966;11.038;2023-11-19T12:17:03;13.00;99.90
30381;DHT22;17169;50.966;11.038;2023-11-19T12:20:26;13.10;99.90
30381;DHT22;17169;50.966;11.038;2023-11-19T12:23:32;13.10;99.90
30381;DHT22;17169;50.966;11.038;2023-11-19T12:26:36;13.10;99.90
30381;DHT22;17169;50.966;11.038;2023-11-19T12:29:43;13.10;99.90
30381;DHT22;17169;50.966;11.038;2023-11-19T12:32:46;13.10;99.90
30381;DHT22;17169;50.966;11.038;2023-11-19T12:35:49;13.10;99.90
30381;DHT22;17169;50.966;11.038;2023-11-19T12:38:51;13.30;99.90
30381;DHT22;17169;50.966;11.038;2023-11-19T12:41:53;13.40;99.90
30381;DHT22;17169;50.966;11.038;2023-11-19T12:44:57;13.60;99.90
30381;DHT22;17169;50.966;11.038;2023-11-19T12:48:06;13.70;99.90
30381;DHT22;17169;50.966;11.038;2023-11-19T12:51:09;13.90;99.90
30381;DHT22;17169;50.966;11.038;2023-11-19T12:54:11;14.00;99.90
30381;DHT22;17169;50.966;11.038;2023-11-19T12:57:15;14.00;99.90
30381;DHT22;17169;50.966;11.038;2023-11-19T13:00:22;14.10;99.90
30381;DHT22;17169;50.966;11.038;2023-11-19T13:03:29;14.10;99.90
30381;DHT22;17169;50.966;11.038;2023-11-19T13:06:32;14.10;99.90
30381;DHT22;17169;50.966;11.038;2023-11-19T13:09:35;14.20;99.90
30381;DHT22;17169;50.966;11.038;2023-11-19T13:12:37;14.20;99.90
30381;DHT22;17169;50.966;11.038;2023-11-19T13:15:41;14.20;99.90
30381;DHT22;17169;50.966;11.038;2023-11-19T13:18:45;14.30;99.90
30381;DHT22;17169;50.966;11.038;2023-11-19T13:21:47;14.30;99.90
30381;DHT22;17169;50.966;11.038;2023-11-19T13:24:50;14.20;99.90
30381;DHT22;17169;50.966;11.038;2023-11-19T13:27:52;14.20;99.90
30381;DHT22;17169;50.966;11.038;2023-11-19T13:30:56;14.10;99.90
30381;DHT22;17169;50.966;11.038;2023-11-19T13:33:59;14.00;99.90
30381;DHT22;17169;50.966;11.038;2023-11-19T13:37:01;14.00;99.90
30381;DHT22;17169;50.966;11.038;2023-11-19T13:40:05;14.00;99.90
30381;DHT22;17169;50.966;11.038;2023-11-19T13:43:07;14.10;99.90
30381;DHT22;17169;50.966;11.038;2023-11-19T13:46:11;14.10;99.90
30381;DHT22;17169;50.966;11.038;2023-11-19T13:49:13;14.10;99.90
30381;DHT22;17169;50.966;11.038;2023-11-19T13:52:16;14.10;99.90
30381;DHT22;17169;50.966;11.038;2023-11-19T13:55:19;14.10;99.90
30381;DHT22;17169;50.966;11.038;2023-11-19T13:58:21;14.00;99.90
30381;DHT22;17169;50.966;11.038;2023-11-19T14:01:26;13.90;99.90
30381;DHT22;17169;50.966;11.038;2023-11-19T14:04:28;13.90;99.90
30381;DHT22;17169;50.966;11.038;2023-11-19T14:07:31;13.80;99.90
30381;DHT22;17169;50.966;11.038;2023-11-19T14:10:33;13.70;99.90
30381;DHT22;17169;50.966;11.038;2023-11-19T14:13:35;13.80;99.90
30381;DHT22;17169;50.966;11.038;2023-11-19T14:16:40;13.80;99.90
30381;DHT22;17169;50.966;11.038;2023-11-19T14:19:42;13.80;99.90
30381;DHT22;17169;50.966;11.038;2023-11-19T14:22:45;13.80;99.90
30381;DHT22;17169;50.966;11.038;2023-11-19T14:25:49;13.80;99.90
30381;DHT22;17169;50.966;11.038;2023-11-19T14:28:52;13.70;99.90
30381;DHT22;17169;50.966;11.038;2023-11-19T14:31:55;13.70;99.90
30381;DHT22;17169;50.966;11.038;2023-11-19T14:34:58;13.60;99.90
30381;DHT22;17169;50.966;11.038;2023-11-19T14:38:00;13.50;99.90
30381;DHT22;17169;50.966;11.038;2023-11-19T14:41:06;13.50;99.90
30381;DHT22;17169;50.966;11.038;2023-11-19T14:44:08;13.40;99.90
30381;DHT22;17169;50.966;11.038;2023-11-19T14:47:12;13.30;99.90
30381;DHT22;17169;50.966;11.038;2023-11-19T14:50:15;13.30;99.90
30381;DHT22;17169;50.966;11.038;2023-11-19T14:53:17;13.20;99.90
30381;DHT22;17169;50.966;11.038;2023-11-19T14:56:21;13.10;99.90
30381;DHT22;17169;50.966;11.038;2023-11-19T14:59:23;13.10;99.90
30381;DHT22;17169;50.966;11.038;2023-11-19T15:02:27;13.10;99.90
30381;DHT22;17169;50.966;11.038;2023-11-19T15:05:30;13.10;99.90
30381;DHT22;17169;50.966;11.038;2023-11-19T15:08:32;13.10;99.90
30381;DHT22;17169;50.966;11.038;2023-11-19T15:11:34;13.00;99.90
30381;DHT22;17169;50.966;11.038;2023-11-19T15:14:37;13.00;99.90
30381;DHT22;17169;50.966;11.038;2023-11-19T15:17:41;13.00;99.90
30381;DHT22;17169;50.966;11.038;2023-11-19T15:20:43;13.00;99.90
30381;DHT22;17169;50.966;11.038;2023-11-19T15:23:48;12.90;99.90
30381;DHT22;17169;50.966;11.038;2023-11-19T15:26:50;12.80;99.90
30381;DHT22;17169;50.966;11.038;2023-11-19T15:29:53;12.80;99.90
30381;DHT22;17169;50.966;11.038;2023-11-19T15:32:56;12.80;99.90
30381;DHT22;17169;50.966;11.038;2023-11-19T15:35:59;12.60;99.90
30381;DHT22;17169;50.966;11.038;2023-11-19T15:39:03;12.50;99.90
30381;DHT22;17169;50.966;11.038;2023-11-19T15:42:06;12.40;99.90
30381;DHT22;17169;50.966;11.038;2023-11-19T15:45:11;12.40;99.90
30381;DHT22;17169;50.966;11.038;2023-11-19T15:48:15;12.30;99.90
30381;DHT22;17169;50.966;11.038;2023-11-19T15:51:19;12.20;99.90
30381;DHT22;17169;50.966;11.038;2023-11-19T15:54:21;12.20;99.90
30381;DHT22;17169;50.966;11.038;2023-11-19T15:57:24;12.20;99.90
30381;DHT22;17169;50.966;11.038;2023-11-19T16:00:26;12.20;99.90
30381;DHT22;17169;50.966;11.038;2023-11-19T16:03:30;12.20;99.90
30381;DHT22;17169;50.966;11.038;2023-11-19T16:06:34;12.10;99.90
30381;DHT22;17169;50.966;11.038;2023-11-19T16:09:36;12.10;99.90
30381;DHT22;17169;50.966;11.038;2023-11-19T16:12:39;12.20;99.90
30381;DHT22;17169;50.966;11.038;2023-11-19T16:15:41;12.10;99.90
30381;DHT22;17169;50.966;11.038;2023-11-19T16:18:45;12.10;99.90
30381;DHT22;17169;50.966;11.038;2023-11-19T16:21:48;12.10;99.90
30381;DHT22;17169;50.966;11.038;2023-11-19T16:24:50;12.10;99.90
30381;DHT22;17169;50.966;11.038;2023-11-19T16:27:55;12.00;99.90
30381;DHT22;17169;50.966;11.038;2023-11-19T16:30:57;12.00;99.90
30381;DHT22;17169;50.966;11.038;2023-11-19T16:34:01;12.00;99.90
30381;DHT22;17169;50.966;11.038;2023-11-19T16:37:05;11.90;99.90
30381;DHT22;17169;50.966;11.038;2023-11-19T16:40:09;11.90;99.90
30381;DHT22;17169;50.966;11.038;2023-11-19T16:43:12;11.80;99.90
30381;DHT22;17169;50.966;11.038;2023-11-19T16:46:15;11.80;99.90
30381;DHT22;17169;50.966;11.038;2023-11-19T16:49:18;11.70;99.90
30381;DHT22;17169;50.966;11.038;2023-11-19T16:52:21;11.70;99.90
30381;DHT22;17169;50.966;11.038;2023-11-19T16:55:23;11.60;99.90
30381;DHT22;17169;50.966;11.038;2023-11-19T16:58:26;11.60;99.90
30381;DHT22;17169;50.966;11.038;2023-11-19T17:01:29;11.60;99.90
30381;DHT22;17169;50.966;11.038;2023-11-19T17:04:33;11.50;99.90
30381;DHT22;17169;50.966;11.038;2023-11-19T17:07:35;11.50;99.90
30381;DHT22;17169;50.966;11.038;2023-11-19T17:10:38;11.40;99.90
30381;DHT22;17169;50.966;11.038;2023-11-19T17:13:40;11.40;99.90
30381;DHT22;17169;50.966;11.038;2023-11-19T17:16:43;11.40;99.90
30381;DHT22;17169;50.966;11.038;2023-11-19T17:19:47;11.30;99.90
30381;DHT22;17169;50.966;11.038;2023-11-19T17:22:49;11.30;99.90
30381;DHT22;17169;50.966;11.038;2023-11-19T17:25:52;11.40;99.90
30381;DHT22;17169;50.966;11.038;2023-11-19T17:28:54;11.40;99.90
30381;DHT22;17169;50.966;11.038;2023-11-19T17:31:56;11.40;99.90
30381;DHT22;17169;50.966;11.038;2023-11-19T17:35:00;11.40;99.90
30381;DHT22;17169;50.966;11.038;2023-11-19T17:38:03;11.40;99.90
30381;DHT22;17169;50.966;11.038;2023-11-19T17:41:06;11.30;99.90
30381;DHT22;17169;50.966;11.038;2023-11-19T17:44:09;11.40;99.90
30381;DHT22;17169;50.966;11.038;2023-11-19T17:47:12;11.40;99.90
30381;DHT22;17169;50.966;11.038;2023-11-19T17:50:16;11.40;99.90
30381;DHT22;17169;50.966;11.038;2023-11-19T17:53:19;11.30;99.90
30381;DHT22;17169;50.966;11.038;2023-11-19T17:56:21;11.40;99.90
30381;DHT22;17169;50.966;11.038;2023-11-19T17:59:23;11.40;99.90
30381;DHT22;17169;50.966;11.038;2023-11-19T18:02:26;11.40;99.90
30381;DHT22;17169;50.966;11.038;2023-11-19T18:05:30;11.40;99.90
30381;DHT22;17169;50.966;11.038;2023-11-19T18:08:32;11.40;99.90
30381;DHT22;17169;50.966;11.038;2023-11-19T18:11:36;11.50;99.90
30381;DHT22;17169;50.966;11.038;2023-11-19T18:14:39;11.50;99.90
30381;DHT22;17169;50.966;11.038;2023-11-19T18:17:41;11.40;99.90
30381;DHT22;17169;50.966;11.038;2023-11-19T18:20:45;11.50;99.90
30381;DHT22;17169;50.966;11.038;2023-11-19T18:23:47;11.50;99.90
30381;DHT22;17169;50.966;11.038;2023-11-19T18:26:50;11.50;99.90
30381;DHT22;17169;50.966;11.038;2023-11-19T18:29:52;11.50;99.90
30381;DHT22;17169;50.966;11.038;2023-11-19T18:32:54;11.50;99.90
30381;DHT22;17169;50.966;11.038;2023-11-19T18:35:58;11.50;99.90
30381;DHT22;17169;50.966;11.038;2023-11-19T18:39:01;11.60;99.90
30381;DHT22;17169;50.966;11.038;2023-11-19T18:42:05;11.60;99.90
30381;DHT22;17169;50.966;11.038;2023-11-19T18:45:08;11.60;99.90
30381;DHT22;17169;50.966;11.038;2023-11-19T18:48:10;11.60;99.90
30381;DHT22;17169;50.966;11.038;2023-11-19T18:51:14;11.60;99.90
30381;DHT22;17169;50.966;11.038;2023-11-19T18:54:17;11.60;99.90
30381;DHT22;17169;50.966;11.038;2023-11-19T18:57:21;11.60;99.90
30381;DHT22;17169;50.966;11.038;2023-11-19T19:00:24;11.60;99.90
30381;DHT22;17169;50.966;11.038;2023-11-19T19:03:26;11.60;99.90
30381;DHT22;17169;50.966;11.038;2023-11-19T19:06:33;11.60;99.90
30381;DHT22;17169;50.966;11.038;2023-11-19T19:09:36;11.60;99.90
30381;DHT22;17169;50.966;11.038;2023-11-19T19:12:38;11.60;99.90
30381;DHT22;17169;50.966;11.038;2023-11-19T19:15:41;11.60;99.90
30381;DHT22;17169;50.966;11.038;2023-11-19T19:18:43;11.50;99.90
30381;DHT22;17169;50.966;11.038;2023-11-19T19:21:47;11.50;99.90
30381;DHT22;17169;50.966;11.038;2023-11-19T19:24:50;11.40;99.90
30381;DHT22;17169;50.966;11.038;2023-11-19T19:27:52;11.40;99.90
30381;DHT22;17169;50.966;11.038;2023-11-19T19:30:54;11.40;99.90
30381;DHT22;17169;50.966;11.038;2023-11-19T19:33:57;11.40;99.90
30381;DHT22;17169;50.966;11.038;2023-11-19T19:37:01;11.40;99.90
30381;DHT22;17169;50.966;11.038;2023-11-19T19:40:03;11.50;99.90
30381;DHT22;17169;50.966;11.038;2023-11-19T19:43:06;11.50;99.90
30381;DHT22;17169;50.966;11.038;2023-11-19T19:46:10;11.50;99.90
30381;DHT22;17169;50.966;11.038;2023-11-19T19:49:12;11.50;99.90
30381;DHT22;17169;50.966;11.038;2023-11-19T19:52:16;11.50;99.90
30381;DHT22;17169;50.966;11.038;2023-11-19T19:55:19;11.50;99.90
30381;DHT22;17169;50.966;11.038;2023-11-19T19:58:22;11.50;99.90
30381;DHT22;17169;50.966;11.038;2023-11-19T20:01:24;11.60;99.90
30381;DHT22;17169;50.966;11.038;2023-11-19T20:04:27;11.60;99.90
30381;DHT22;17169;50.966;11.038;2023-11-19T20:07:31;11.60;99.90
30381;DHT22;17169;50.966;11.038;2023-11-19T20:10:34;11.60;99.90
30381;DHT22;17169;50.966;11.038;2023-11-19T20:13:37;11.60;99.90
30381;DHT22;17169;50.966;11.038;2023-11-19T20:16:39;11.50;99.90
30381;DHT22;17169;50.966;11.038;2023-11-19T20:19:42;11.60;99.90
30381;DHT22;17169;50.966;11.038;2023-11-19T20:22:45;11.60;99.90
30381;DHT22;17169;50.966;11.038;2023-11-19T20:25:52;11.60;99.90
30381;DHT22;17169;50.966;11.038;2023-11-19T20:28:55;11.60;99.90
30381;DHT22;17169;50.966;11.038;2023-11-19T20:31:58;11.60;99.90
30381;DHT22;17169;50.966;11.038;2023-11-19T20:35:00;11.60;99.90
30381;DHT22;17169;50.966;11.038;2023-11-19T20:38:04;11.70;99.90
30381;DHT22;17169;50.966;11.038;2023-11-19T20:41:07;11.70;99.90
30381;DHT22;17169;50.966;11.038;2023-11-19T20:44:10;11.70;99.90
30381;DHT22;17169;50.966;11.038;2023-11-19T20:47:12;11.70;99.90
30381;DHT22;17169;50.966;11.038;2023-11-19T20:50:15;11.70;99.90
30381;DHT22;17169;50.966;11.038;2023-11-19T20:53:19;11.70;99.90
30381;DHT22;17169;50.966;11.038;2023-11-19T20:56:21;11.70;99.90
30381;DHT22;17169;50.966;11.038;2023-11-19T20:59:25;11.70;99.90
30381;DHT22;17169;50.966;11.038;2023-11-19T21:02:27;11.70;99.90
30381;DHT22;17169;50.966;11.038;2023-11-19T21:05:30;11.70;99.90
30381;DHT22;17169;50.966;11.038;2023-11-19T21:08:34;11.80;99.90
30381;DHT22;17169;50.966;11.038;2023-11-19T21:11:37;11.70;99.90
30381;DHT22;17169;50.966;11.038;2023-11-19T21:14:40;11.70;99.90
30381;DHT22;17169;50.966;11.038;2023-11-19T21:17:43;11.70;99.90
30381;DHT22;17169;50.966;11.038;2023-11-19T21:20:45;11.70;99.90
30381;DHT22;17169;50.966;11.038;2023-11-19T21:23:49;11.70;99.90
30381;DHT22;17169;50.966;11.038;2023-11-19T21:26:52;11.70;99.90
30381;DHT22;17169;50.966;11.038;2023-11-19T21:29:55;11.70;99.90
30381;DHT22;17169;50.966;11.038;2023-11-19T21:32:59;11.60;99.90
30381;DHT22;17169;50.966;11.038;2023-11-19T21:36:03;11.60;99.90
30381;DHT22;17169;50.966;11.038;2023-11-19T21:39:07;11.60;99.90
30381;DHT22;17169;50.966;11.038;2023-11-19T21:42:10;11.60;99.90
30381;DHT22;17169;50.966;11.038;2023-11-19T21:45:13;11.60;99.90
30381;DHT22;17169;50.966;11.038;2023-11-19T21:48:15;11.50;99.90
30381;DHT22;17169;50.966;11.038;2023-11-19T21:51:18;11.50;99.90
30381;DHT22;17169;50.966;11.038;2023-11-19T21:54:21;11.50;99.90
30381;DHT22;17169;50.966;11.038;2023-11-19T21:57:24;11.40;99.90
30381;DHT22;17169;50.966;11.038;2023-11-19T22:00:26;11.40;99.90
30381;DHT22;17169;50.966;11.038;2023-11-19T22:03:29;11.30;99.90
30381;DHT22;17169;50.966;11.038;2023-11-19T22:06:31;11.40;99.90
30381;DHT22;17169;50.966;11.038;2023-11-19T22:09:35;11.40;99.90